sensor_id;sensor_type;location;lat;lon;timestamp;P1;durP1;ratioP1;P2;durP2;ratioP2
73337;SDS011;61575;49.908;35.556;2023-08-24T00:01:57;6.78;;;3.05;;
73337;SDS011;61575;49.908;35.556;2023-08-24T00:04:59;6.87;;;2.90;;
73337;SDS011;61575;49.908;35.556;2023-08-24T00:08:03;6.28;;;2.65;;
73337;SDS011;61575;49.908;35.556;2023-08-24T00:11:09;6.07;;;2.85;;
73337;SDS011;61575;49.908;35.556;2023-08-24T00:14:16;5.45;;;2.42;;
73337;SDS011;61575;49.908;35.556;2023-08-24T00:17:18;5.30;;;2.47;;
73337;SDS011;61575;49.908;35.556;2023-08-24T00:20:21;7.75;;;3.20;;
73337;SDS011;61575;49.908;35.556;2023-08-24T00:23:23;4.65;;;2.40;;
73337;SDS011;61575;49.908;35.556;2023-08-24T00:26:25;6.70;;;3.10;;
73337;SDS011;61575;49.908;35.556;2023-08-24T00:29:27;7.25;;;2.78;;
73337;SDS011;61575;49.908;35.556;2023-08-24T00:32:29;5.07;;;2.90;;
73337;SDS011;61575;49.908;35.556;2023-08-24T00:35:31;5.63;;;2.70;;
73337;SDS011;61575;49.908;35.556;2023-08-24T00:38:33;5.72;;;2.42;;
73337;SDS011;61575;49.908;35.556;2023-08-24T00:41:35;6.85;;;2.72;;
73337;SDS011;61575;49.908;35.556;2023-08-24T00:44:37;6.13;;;3.27;;
73337;SDS011;61575;49.908;35.556;2023-08-24T00:47:40;6.25;;;3.00;;
73337;SDS011;61575;49.908;35.556;2023-08-24T00:50:45;7.25;;;2.90;;
73337;SDS011;61575;49.908;35.556;2023-08-24T00:53:47;7.90;;;3.58;;
73337;SDS011;61575;49.908;35.556;2023-08-24T00:56:49;7.15;;;3.10;;
73337;SDS011;61575;49.908;35.556;2023-08-24T00:59:51;5.97;;;3.10;;
73337;SDS011;61575;49.908;35.556;2023-08-24T01:02:53;6.32;;;2.78;;
73337;SDS011;61575;49.908;35.556;2023-08-24T01:05:55;6.18;;;2.70;;
73337;SDS011;61575;49.908;35.556;2023-08-24T01:08:57;8.02;;;3.47;;
73337;SDS011;61575;49.908;35.556;2023-08-24T01:12:02;5.18;;;2.53;;
73337;SDS011;61575;49.908;35.556;2023-08-24T01:15:15;6.03;;;2.75;;
73337;SDS011;61575;49.908;35.556;2023-08-24T01:18:23;7.13;;;3.10;;
73337;SDS011;61575;49.908;35.556;2023-08-24T01:21:28;5.57;;;2.58;;
73337;SDS011;61575;49.908;35.556;2023-08-24T01:24:42;7.50;;;2.60;;
73337;SDS011;61575;49.908;35.556;2023-08-24T01:27:49;5.53;;;2.70;;
73337;SDS011;61575;49.908;35.556;2023-08-24T01:30:53;8.52;;;2.45;;
73337;SDS011;61575;49.908;35.556;2023-08-24T01:33:55;6.63;;;2.80;;
73337;SDS011;61575;49.908;35.556;2023-08-24T01:36:57;5.47;;;2.65;;
73337;SDS011;61575;49.908;35.556;2023-08-24T01:43:11;5.50;;;2.80;;
73337;SDS011;61575;49.908;35.556;2023-08-24T01:46:22;7.28;;;2.83;;
73337;SDS011;61575;49.908;35.556;2023-08-24T01:49:27;5.72;;;2.90;;
73337;SDS011;61575;49.908;35.556;2023-08-24T01:52:31;6.43;;;3.20;;
73337;SDS011;61575;49.908;35.556;2023-08-24T01:55:37;5.78;;;2.70;;
73337;SDS011;61575;49.908;35.556;2023-08-24T01:58:40;6.15;;;2.90;;
73337;SDS011;61575;49.908;35.556;2023-08-24T02:01:42;11.40;;;3.60;;
73337;SDS011;61575;49.908;35.556;2023-08-24T02:04:44;7.20;;;3.80;;
73337;SDS011;61575;49.908;35.556;2023-08-24T02:07:46;7.55;;;4.10;;
73337;SDS011;61575;49.908;35.556;2023-08-24T02:10:48;6.30;;;3.72;;
73337;SDS011;61575;49.908;35.556;2023-08-24T02:13:50;8.05;;;3.88;;
73337;SDS011;61575;49.908;35.556;2023-08-24T02:16:52;6.20;;;3.20;;
73337;SDS011;61575;49.908;35.556;2023-08-24T02:19:55;6.90;;;3.20;;
73337;SDS011;61575;49.908;35.556;2023-08-24T02:22:56;8.13;;;3.40;;
73337;SDS011;61575;49.908;35.556;2023-08-24T02:25:58;7.65;;;3.47;;
73337;SDS011;61575;49.908;35.556;2023-08-24T02:29:01;7.15;;;3.10;;
73337;SDS011;61575;49.908;35.556;2023-08-24T02:32:03;8.45;;;2.90;;
73337;SDS011;61575;49.908;35.556;2023-08-24T02:35:05;8.68;;;3.75;;
73337;SDS011;61575;49.908;35.556;2023-08-24T02:38:08;6.90;;;3.33;;
73337;SDS011;61575;49.908;35.556;2023-08-24T02:41:10;7.63;;;3.43;;
73337;SDS011;61575;49.908;35.556;2023-08-24T02:44:12;13.55;;;3.70;;
73337;SDS011;61575;49.908;35.556;2023-08-24T02:47:14;7.78;;;3.85;;
73337;SDS011;61575;49.908;35.556;2023-08-24T02:50:16;5.45;;;2.80;;
73337;SDS011;61575;49.908;35.556;2023-08-24T02:53:18;6.20;;;2.83;;
73337;SDS011;61575;49.908;35.556;2023-08-24T02:56:20;5.63;;;2.90;;
73337;SDS011;61575;49.908;35.556;2023-08-24T02:59:22;6.07;;;3.13;;
73337;SDS011;61575;49.908;35.556;2023-08-24T03:02:24;6.47;;;2.70;;
73337;SDS011;61575;49.908;35.556;2023-08-24T03:05:26;5.95;;;2.97;;
73337;SDS011;61575;49.908;35.556;2023-08-24T03:08:28;5.97;;;2.70;;
73337;SDS011;61575;49.908;35.556;2023-08-24T03:11:32;5.38;;;2.70;;
73337;SDS011;61575;49.908;35.556;2023-08-24T03:14:34;6.37;;;2.70;;
73337;SDS011;61575;49.908;35.556;2023-08-24T03:17:36;6.63;;;3.07;;
73337;SDS011;61575;49.908;35.556;2023-08-24T03:20:38;8.83;;;2.90;;
73337;SDS011;61575;49.908;35.556;2023-08-24T03:26:42;6.78;;;3.25;;
73337;SDS011;61575;49.908;35.556;2023-08-24T03:29:44;5.03;;;2.50;;
73337;SDS011;61575;49.908;35.556;2023-08-24T03:32:46;7.73;;;3.40;;
73337;SDS011;61575;49.908;35.556;2023-08-24T03:35:48;7.45;;;2.85;;
73337;SDS011;61575;49.908;35.556;2023-08-24T03:38:51;6.13;;;2.80;;
73337;SDS011;61575;49.908;35.556;2023-08-24T03:41:53;7.28;;;2.67;;
73337;SDS011;61575;49.908;35.556;2023-08-24T03:44:55;6.90;;;2.90;;
73337;SDS011;61575;49.908;35.556;2023-08-24T03:47:56;7.50;;;2.80;;
73337;SDS011;61575;49.908;35.556;2023-08-24T03:51:00;5.28;;;2.60;;
73337;SDS011;61575;49.908;35.556;2023-08-24T03:54:03;4.97;;;2.60;;
73337;SDS011;61575;49.908;35.556;2023-08-24T03:57:07;6.63;;;2.83;;
73337;SDS011;61575;49.908;35.556;2023-08-24T04:03:15;4.90;;;2.42;;
73337;SDS011;61575;49.908;35.556;2023-08-24T04:06:18;6.47;;;2.42;;
73337;SDS011;61575;49.908;35.556;2023-08-24T04:09:21;6.18;;;2.38;;
73337;SDS011;61575;49.908;35.556;2023-08-24T04:12:23;5.05;;;2.38;;
73337;SDS011;61575;49.908;35.556;2023-08-24T04:15:25;4.75;;;2.42;;
73337;SDS011;61575;49.908;35.556;2023-08-24T04:18:27;6.45;;;2.92;;
73337;SDS011;61575;49.908;35.556;2023-08-24T04:21:29;5.22;;;2.58;;
73337;SDS011;61575;49.908;35.556;2023-08-24T04:24:31;5.65;;;2.00;;
73337;SDS011;61575;49.908;35.556;2023-08-24T04:27:33;8.68;;;2.20;;
73337;SDS011;61575;49.908;35.556;2023-08-24T04:30:35;6.40;;;2.13;;
73337;SDS011;61575;49.908;35.556;2023-08-24T04:33:37;7.10;;;2.65;;
73337;SDS011;61575;49.908;35.556;2023-08-24T04:36:39;4.60;;;2.20;;
73337;SDS011;61575;49.908;35.556;2023-08-24T04:39:41;5.53;;;1.85;;
73337;SDS011;61575;49.908;35.556;2023-08-24T04:42:43;4.78;;;2.13;;
73337;SDS011;61575;49.908;35.556;2023-08-24T04:45:45;4.25;;;2.03;;
73337;SDS011;61575;49.908;35.556;2023-08-24T04:48:48;4.50;;;1.80;;
73337;SDS011;61575;49.908;35.556;2023-08-24T04:51:51;4.65;;;1.95;;
73337;SDS011;61575;49.908;35.556;2023-08-24T04:54:53;5.55;;;2.08;;
73337;SDS011;61575;49.908;35.556;2023-08-24T04:57:55;3.85;;;1.80;;
73337;SDS011;61575;49.908;35.556;2023-08-24T05:00:57;4.30;;;1.75;;
73337;SDS011;61575;49.908;35.556;2023-08-24T05:03:59;4.43;;;1.80;;
73337;SDS011;61575;49.908;35.556;2023-08-24T05:07:01;4.85;;;1.88;;
73337;SDS011;61575;49.908;35.556;2023-08-24T05:10:03;4.00;;;1.80;;
73337;SDS011;61575;49.908;35.556;2023-08-24T05:16:09;4.43;;;1.80;;
73337;SDS011;61575;49.908;35.556;2023-08-24T05:19:11;4.35;;;1.70;;
73337;SDS011;61575;49.908;35.556;2023-08-24T05:22:13;4.43;;;2.22;;
73337;SDS011;61575;49.908;35.556;2023-08-24T05:25:15;7.15;;;1.98;;
73337;SDS011;61575;49.908;35.556;2023-08-24T05:28:20;5.18;;;1.60;;
73337;SDS011;61575;49.908;35.556;2023-08-24T05:31:22;4.38;;;1.60;;
73337;SDS011;61575;49.908;35.556;2023-08-24T05:34:24;4.00;;;1.48;;
73337;SDS011;61575;49.908;35.556;2023-08-24T05:37:26;4.47;;;1.77;;
73337;SDS011;61575;49.908;35.556;2023-08-24T05:40:28;3.97;;;1.75;;
73337;SDS011;61575;49.908;35.556;2023-08-24T05:43:30;5.68;;;2.63;;
73337;SDS011;61575;49.908;35.556;2023-08-24T05:46:32;4.30;;;2.00;;
73337;SDS011;61575;49.908;35.556;2023-08-24T05:49:34;4.05;;;1.95;;
73337;SDS011;61575;49.908;35.556;2023-08-24T05:52:36;3.88;;;1.58;;
73337;SDS011;61575;49.908;35.556;2023-08-24T05:55:38;3.95;;;1.70;;
73337;SDS011;61575;49.908;35.556;2023-08-24T05:58:40;8.45;;;1.65;;
73337;SDS011;61575;49.908;35.556;2023-08-24T06:01:42;3.25;;;1.60;;
73337;SDS011;61575;49.908;35.556;2023-08-24T06:04:44;4.15;;;1.48;;
73337;SDS011;61575;49.908;35.556;2023-08-24T06:07:46;3.33;;;1.52;;
73337;SDS011;61575;49.908;35.556;2023-08-24T06:10:48;3.20;;;1.45;;
73337;SDS011;61575;49.908;35.556;2023-08-24T06:13:49;3.13;;;1.50;;
73337;SDS011;61575;49.908;35.556;2023-08-24T06:16:55;3.67;;;1.50;;
73337;SDS011;61575;49.908;35.556;2023-08-24T06:22:59;2.95;;;1.50;;
73337;SDS011;61575;49.908;35.556;2023-08-24T06:29:03;3.65;;;1.33;;
73337;SDS011;61575;49.908;35.556;2023-08-24T06:32:05;3.63;;;1.60;;
73337;SDS011;61575;49.908;35.556;2023-08-24T06:35:07;3.85;;;1.40;;
73337;SDS011;61575;49.908;35.556;2023-08-24T06:38:09;3.60;;;1.42;;
73337;SDS011;61575;49.908;35.556;2023-08-24T06:41:11;3.97;;;1.52;;
73337;SDS011;61575;49.908;35.556;2023-08-24T06:44:14;4.10;;;1.50;;
73337;SDS011;61575;49.908;35.556;2023-08-24T06:47:15;3.47;;;1.25;;
73337;SDS011;61575;49.908;35.556;2023-08-24T06:50:18;4.07;;;1.50;;
73337;SDS011;61575;49.908;35.556;2023-08-24T06:53:21;3.25;;;1.45;;
73337;SDS011;61575;49.908;35.556;2023-08-24T06:56:23;3.67;;;1.45;;
73337;SDS011;61575;49.908;35.556;2023-08-24T06:59:25;4.95;;;1.65;;
73337;SDS011;61575;49.908;35.556;2023-08-24T07:02:27;3.40;;;1.20;;
73337;SDS011;61575;49.908;35.556;2023-08-24T07:08:38;2.78;;;1.00;;
73337;SDS011;61575;49.908;35.556;2023-08-24T07:11:40;3.60;;;1.08;;
73337;SDS011;61575;49.908;35.556;2023-08-24T07:17:44;7.10;;;1.47;;
73337;SDS011;61575;49.908;35.556;2023-08-24T07:20:46;4.28;;;1.20;;
73337;SDS011;61575;49.908;35.556;2023-08-24T07:23:47;2.70;;;1.20;;
73337;SDS011;61575;49.908;35.556;2023-08-24T07:29:51;3.72;;;1.23;;
73337;SDS011;61575;49.908;35.556;2023-08-24T07:32:53;3.70;;;1.50;;
73337;SDS011;61575;49.908;35.556;2023-08-24T07:38:58;3.13;;;1.05;;
73337;SDS011;61575;49.908;35.556;2023-08-24T07:42:00;3.65;;;0.90;;
73337;SDS011;61575;49.908;35.556;2023-08-24T07:45:02;2.85;;;1.17;;
73337;SDS011;61575;49.908;35.556;2023-08-24T07:48:04;4.22;;;1.40;;
73337;SDS011;61575;49.908;35.556;2023-08-24T07:51:07;2.90;;;1.10;;
73337;SDS011;61575;49.908;35.556;2023-08-24T07:54:09;3.65;;;1.20;;
73337;SDS011;61575;49.908;35.556;2023-08-24T07:57:11;2.63;;;1.08;;
73337;SDS011;61575;49.908;35.556;2023-08-24T08:00:13;3.38;;;1.30;;
73337;SDS011;61575;49.908;35.556;2023-08-24T08:03:16;3.92;;;1.20;;
73337;SDS011;61575;49.908;35.556;2023-08-24T08:06:18;3.97;;;1.27;;
73337;SDS011;61575;49.908;35.556;2023-08-24T08:12:22;2.63;;;1.10;;
73337;SDS011;61575;49.908;35.556;2023-08-24T08:15:24;2.55;;;1.20;;
73337;SDS011;61575;49.908;35.556;2023-08-24T08:18:26;15.52;;;8.18;;
73337;SDS011;61575;49.908;35.556;2023-08-24T08:24:30;3.38;;;1.20;;
73337;SDS011;61575;49.908;35.556;2023-08-24T08:30:34;3.75;;;1.50;;
73337;SDS011;61575;49.908;35.556;2023-08-24T08:33:36;5.25;;;2.15;;
73337;SDS011;61575;49.908;35.556;2023-08-24T08:39:40;3.40;;;1.38;;
73337;SDS011;61575;49.908;35.556;2023-08-24T08:42:42;2.10;;;1.02;;
73337;SDS011;61575;49.908;35.556;2023-08-24T08:45:45;4.43;;;1.50;;
73337;SDS011;61575;49.908;35.556;2023-08-24T08:48:47;4.32;;;1.17;;
73337;SDS011;61575;49.908;35.556;2023-08-24T08:51:52;3.08;;;1.00;;
73337;SDS011;61575;49.908;35.556;2023-08-24T08:54:54;2.50;;;1.30;;
73337;SDS011;61575;49.908;35.556;2023-08-24T09:01:00;5.25;;;1.48;;
73337;SDS011;61575;49.908;35.556;2023-08-24T09:04:05;3.08;;;1.10;;
73337;SDS011;61575;49.908;35.556;2023-08-24T09:07:08;3.03;;;0.93;;
73337;SDS011;61575;49.908;35.556;2023-08-24T09:10:13;2.97;;;1.13;;
73337;SDS011;61575;49.908;35.556;2023-08-24T09:13:15;3.65;;;1.30;;
73337;SDS011;61575;49.908;35.556;2023-08-24T09:16:17;4.22;;;1.30;;
73337;SDS011;61575;49.908;35.556;2023-08-24T09:19:19;3.05;;;1.30;;
73337;SDS011;61575;49.908;35.556;2023-08-24T09:22:32;2.72;;;1.17;;
73337;SDS011;61575;49.908;35.556;2023-08-24T09:25:44;2.72;;;1.13;;
73337;SDS011;61575;49.908;35.556;2023-08-24T09:28:47;4.97;;;1.65;;
73337;SDS011;61575;49.908;35.556;2023-08-24T09:34:54;3.28;;;1.00;;
73337;SDS011;61575;49.908;35.556;2023-08-24T09:37:56;18.23;;;2.22;;
73337;SDS011;61575;49.908;35.556;2023-08-24T09:40:58;4.60;;;1.40;;
73337;SDS011;61575;49.908;35.556;2023-08-24T09:44:03;4.78;;;1.17;;
73337;SDS011;61575;49.908;35.556;2023-08-24T09:47:09;2.03;;;0.82;;
73337;SDS011;61575;49.908;35.556;2023-08-24T09:50:12;4.68;;;1.00;;
73337;SDS011;61575;49.908;35.556;2023-08-24T09:56:20;3.92;;;1.35;;
73337;SDS011;61575;49.908;35.556;2023-08-24T09:59:24;2.88;;;1.00;;
73337;SDS011;61575;49.908;35.556;2023-08-24T10:02:29;2.22;;;0.93;;
73337;SDS011;61575;49.908;35.556;2023-08-24T10:05:37;4.50;;;1.30;;
73337;SDS011;61575;49.908;35.556;2023-08-24T10:08:58;1.52;;;0.90;;
73337;SDS011;61575;49.908;35.556;2023-08-24T10:12:05;3.08;;;1.00;;
73337;SDS011;61575;49.908;35.556;2023-08-24T10:15:09;3.70;;;1.20;;
73337;SDS011;61575;49.908;35.556;2023-08-24T10:18:18;3.67;;;1.20;;
73337;SDS011;61575;49.908;35.556;2023-08-24T10:21:21;2.38;;;1.00;;
73337;SDS011;61575;49.908;35.556;2023-08-24T10:24:27;3.40;;;1.25;;
73337;SDS011;61575;49.908;35.556;2023-08-24T10:27:29;2.85;;;1.25;;
73337;SDS011;61575;49.908;35.556;2023-08-24T10:30:31;4.55;;;1.50;;
73337;SDS011;61575;49.908;35.556;2023-08-24T10:33:34;4.20;;;1.73;;
73337;SDS011;61575;49.908;35.556;2023-08-24T10:36:38;4.03;;;1.35;;
73337;SDS011;61575;49.908;35.556;2023-08-24T10:39:45;2.40;;;1.00;;
73337;SDS011;61575;49.908;35.556;2023-08-24T10:42:48;3.00;;;1.00;;
73337;SDS011;61575;49.908;35.556;2023-08-24T10:45:58;2.53;;;0.90;;
73337;SDS011;61575;49.908;35.556;2023-08-24T10:49:03;2.08;;;0.90;;
73337;SDS011;61575;49.908;35.556;2023-08-24T10:55:26;2.88;;;1.10;;
73337;SDS011;61575;49.908;35.556;2023-08-24T10:58:33;3.20;;;1.00;;
73337;SDS011;61575;49.908;35.556;2023-08-24T11:01:38;2.67;;;1.00;;
73337;SDS011;61575;49.908;35.556;2023-08-24T11:05:03;3.40;;;1.02;;
73337;SDS011;61575;49.908;35.556;2023-08-24T11:08:09;2.50;;;0.90;;
73337;SDS011;61575;49.908;35.556;2023-08-24T11:14:22;5.03;;;1.20;;
73337;SDS011;61575;49.908;35.556;2023-08-24T11:17:29;1.98;;;0.90;;
73337;SDS011;61575;49.908;35.556;2023-08-24T11:20:34;5.72;;;1.20;;
73337;SDS011;61575;49.908;35.556;2023-08-24T11:23:37;3.33;;;1.13;;
73337;SDS011;61575;49.908;35.556;2023-08-24T11:26:44;2.33;;;1.00;;
73337;SDS011;61575;49.908;35.556;2023-08-24T11:29:59;2.10;;;0.90;;
73337;SDS011;61575;49.908;35.556;2023-08-24T11:33:02;2.13;;;0.88;;
73337;SDS011;61575;49.908;35.556;2023-08-24T11:36:05;4.45;;;1.23;;
73337;SDS011;61575;49.908;35.556;2023-08-24T11:39:14;2.25;;;0.90;;
73337;SDS011;61575;49.908;35.556;2023-08-24T11:42:24;3.13;;;1.20;;
73337;SDS011;61575;49.908;35.556;2023-08-24T11:45:29;2.80;;;1.10;;
73337;SDS011;61575;49.908;35.556;2023-08-24T11:48:33;3.20;;;1.23;;
73337;SDS011;61575;49.908;35.556;2023-08-24T11:51:36;4.75;;;1.63;;
73337;SDS011;61575;49.908;35.556;2023-08-24T11:54:43;3.45;;;1.10;;
73337;SDS011;61575;49.908;35.556;2023-08-24T11:57:46;2.72;;;0.98;;
73337;SDS011;61575;49.908;35.556;2023-08-24T12:00:48;2.50;;;0.98;;
73337;SDS011;61575;49.908;35.556;2023-08-24T12:03:50;3.00;;;0.93;;
73337;SDS011;61575;49.908;35.556;2023-08-24T12:06:52;3.63;;;1.10;;
73337;SDS011;61575;49.908;35.556;2023-08-24T12:09:54;2.65;;;1.08;;
73337;SDS011;61575;49.908;35.556;2023-08-24T12:13:06;3.40;;;1.30;;
73337;SDS011;61575;49.908;35.556;2023-08-24T12:16:10;3.38;;;1.15;;
73337;SDS011;61575;49.908;35.556;2023-08-24T12:19:13;3.75;;;0.98;;
73337;SDS011;61575;49.908;35.556;2023-08-24T12:22:16;1.65;;;0.90;;
73337;SDS011;61575;49.908;35.556;2023-08-24T12:25:21;4.07;;;1.20;;
73337;SDS011;61575;49.908;35.556;2023-08-24T12:28:25;3.25;;;1.20;;
73337;SDS011;61575;49.908;35.556;2023-08-24T12:31:27;2.63;;;1.08;;
73337;SDS011;61575;49.908;35.556;2023-08-24T12:34:32;3.15;;;1.17;;
73337;SDS011;61575;49.908;35.556;2023-08-24T12:40:37;2.72;;;1.00;;
73337;SDS011;61575;49.908;35.556;2023-08-24T12:46:42;3.47;;;1.30;;
73337;SDS011;61575;49.908;35.556;2023-08-24T12:53:33;5.40;;;1.60;;
73337;SDS011;61575;49.908;35.556;2023-08-24T12:56:35;6.15;;;1.40;;
73337;SDS011;61575;49.908;35.556;2023-08-24T13:02:40;11.38;;;1.52;;
73337;SDS011;61575;49.908;35.556;2023-08-24T13:05:42;4.97;;;1.23;;
73337;SDS011;61575;49.908;35.556;2023-08-24T13:08:44;2.90;;;1.05;;
73337;SDS011;61575;49.908;35.556;2023-08-24T13:14:47;2.58;;;1.23;;
73337;SDS011;61575;49.908;35.556;2023-08-24T13:17:49;3.03;;;1.05;;
73337;SDS011;61575;49.908;35.556;2023-08-24T13:20:52;4.32;;;1.30;;
73337;SDS011;61575;49.908;35.556;2023-08-24T13:26:56;5.65;;;1.42;;
73337;SDS011;61575;49.908;35.556;2023-08-24T13:33:02;2.38;;;1.10;;
73337;SDS011;61575;49.908;35.556;2023-08-24T13:36:05;4.13;;;1.27;;
73337;SDS011;61575;49.908;35.556;2023-08-24T13:39:07;4.00;;;1.48;;
73337;SDS011;61575;49.908;35.556;2023-08-24T13:45:10;3.92;;;1.10;;
73337;SDS011;61575;49.908;35.556;2023-08-24T13:48:12;3.20;;;1.10;;
73337;SDS011;61575;49.908;35.556;2023-08-24T13:57:19;4.85;;;1.20;;
73337;SDS011;61575;49.908;35.556;2023-08-24T14:03:24;5.55;;;1.35;;
73337;SDS011;61575;49.908;35.556;2023-08-24T14:06:30;6.75;;;1.40;;
73337;SDS011;61575;49.908;35.556;2023-08-24T14:09:33;4.00;;;1.08;;
73337;SDS011;61575;49.908;35.556;2023-08-24T14:15:36;7.75;;;1.27;;
73337;SDS011;61575;49.908;35.556;2023-08-24T14:18:38;5.65;;;1.40;;
73337;SDS011;61575;49.908;35.556;2023-08-24T14:21:41;2.63;;;1.27;;
73337;SDS011;61575;49.908;35.556;2023-08-24T14:24:46;3.95;;;1.40;;
73337;SDS011;61575;49.908;35.556;2023-08-24T14:27:48;3.10;;;1.30;;
73337;SDS011;61575;49.908;35.556;2023-08-24T14:31:05;4.35;;;1.30;;
73337;SDS011;61575;49.908;35.556;2023-08-24T14:34:07;3.83;;;1.38;;
73337;SDS011;61575;49.908;35.556;2023-08-24T14:37:09;2.90;;;1.15;;
73337;SDS011;61575;49.908;35.556;2023-08-24T14:43:13;2.28;;;1.00;;
73337;SDS011;61575;49.908;35.556;2023-08-24T14:46:15;1.80;;;0.88;;
73337;SDS011;61575;49.908;35.556;2023-08-24T14:49:17;3.20;;;1.10;;
73337;SDS011;61575;49.908;35.556;2023-08-24T14:52:21;3.15;;;1.00;;
73337;SDS011;61575;49.908;35.556;2023-08-24T14:58:25;3.58;;;1.35;;
73337;SDS011;61575;49.908;35.556;2023-08-24T15:01:28;3.70;;;1.30;;
73337;SDS011;61575;49.908;35.556;2023-08-24T15:04:30;4.15;;;1.40;;
73337;SDS011;61575;49.908;35.556;2023-08-24T15:07:32;3.00;;;1.23;;
73337;SDS011;61575;49.908;35.556;2023-08-24T15:13:37;2.45;;;1.05;;
73337;SDS011;61575;49.908;35.556;2023-08-24T15:16:39;3.38;;;1.15;;
73337;SDS011;61575;49.908;35.556;2023-08-24T15:22:43;4.50;;;1.40;;
73337;SDS011;61575;49.908;35.556;2023-08-24T15:32:11;6.15;;;1.33;;
73337;SDS011;61575;49.908;35.556;2023-08-24T15:35:14;4.28;;;1.40;;
73337;SDS011;61575;49.908;35.556;2023-08-24T15:41:17;3.55;;;1.30;;
73337;SDS011;61575;49.908;35.556;2023-08-24T15:44:19;5.80;;;1.75;;
73337;SDS011;61575;49.908;35.556;2023-08-24T15:47:21;4.97;;;2.08;;
73337;SDS011;61575;49.908;35.556;2023-08-24T15:53:25;5.63;;;1.58;;
73337;SDS011;61575;49.908;35.556;2023-08-24T15:59:29;5.63;;;1.80;;
73337;SDS011;61575;49.908;35.556;2023-08-24T16:02:31;5.55;;;2.50;;
73337;SDS011;61575;49.908;35.556;2023-08-24T16:05:33;5.10;;;2.15;;
73337;SDS011;61575;49.908;35.556;2023-08-24T16:08:35;5.60;;;2.63;;
73337;SDS011;61575;49.908;35.556;2023-08-24T16:14:39;4.32;;;2.00;;
73337;SDS011;61575;49.908;35.556;2023-08-24T16:17:41;5.05;;;1.92;;
73337;SDS011;61575;49.908;35.556;2023-08-24T16:23:46;23.42;;;3.40;;
73337;SDS011;61575;49.908;35.556;2023-08-24T16:26:48;11.35;;;2.50;;
73337;SDS011;61575;49.908;35.556;2023-08-24T16:29:50;7.60;;;2.58;;
73337;SDS011;61575;49.908;35.556;2023-08-24T16:32:52;7.88;;;2.00;;
73337;SDS011;61575;49.908;35.556;2023-08-24T16:35:54;4.30;;;2.20;;
73337;SDS011;61575;49.908;35.556;2023-08-24T16:38:56;6.20;;;2.30;;
73337;SDS011;61575;49.908;35.556;2023-08-24T16:41:58;7.22;;;2.90;;
73337;SDS011;61575;49.908;35.556;2023-08-24T16:45:00;9.32;;;3.97;;
73337;SDS011;61575;49.908;35.556;2023-08-24T16:48:02;6.43;;;3.40;;
73337;SDS011;61575;49.908;35.556;2023-08-24T16:54:06;8.17;;;3.30;;
73337;SDS011;61575;49.908;35.556;2023-08-24T16:57:08;9.90;;;3.67;;
73337;SDS011;61575;49.908;35.556;2023-08-24T17:00:10;14.63;;;4.30;;
73337;SDS011;61575;49.908;35.556;2023-08-24T17:03:13;17.45;;;6.07;;
73337;SDS011;61575;49.908;35.556;2023-08-24T17:06:15;18.35;;;6.72;;
73337;SDS011;61575;49.908;35.556;2023-08-24T17:09:17;18.17;;;7.25;;
73337;SDS011;61575;49.908;35.556;2023-08-24T17:15:21;15.97;;;6.93;;
73337;SDS011;61575;49.908;35.556;2023-08-24T17:18:23;23.33;;;7.85;;
73337;SDS011;61575;49.908;35.556;2023-08-24T17:21:25;18.30;;;7.72;;
73337;SDS011;61575;49.908;35.556;2023-08-24T17:24:27;16.30;;;7.25;;
73337;SDS011;61575;49.908;35.556;2023-08-24T17:27:29;21.83;;;7.85;;
73337;SDS011;61575;49.908;35.556;2023-08-24T17:30:31;12.85;;;6.95;;
73337;SDS011;61575;49.908;35.556;2023-08-24T17:33:33;13.38;;;5.93;;
73337;SDS011;61575;49.908;35.556;2023-08-24T17:36:35;10.25;;;5.75;;
73337;SDS011;61575;49.908;35.556;2023-08-24T17:39:37;17.25;;;6.88;;
73337;SDS011;61575;49.908;35.556;2023-08-24T17:42:39;17.23;;;5.72;;
73337;SDS011;61575;49.908;35.556;2023-08-24T17:45:42;16.70;;;6.03;;
73337;SDS011;61575;49.908;35.556;2023-08-24T17:48:44;11.23;;;4.93;;
73337;SDS011;61575;49.908;35.556;2023-08-24T17:51:46;11.18;;;5.30;;
73337;SDS011;61575;49.908;35.556;2023-08-24T17:54:48;13.73;;;4.50;;
73337;SDS011;61575;49.908;35.556;2023-08-24T17:57:50;12.98;;;4.57;;
73337;SDS011;61575;49.908;35.556;2023-08-24T18:00:53;8.45;;;4.35;;
73337;SDS011;61575;49.908;35.556;2023-08-24T18:03:55;8.40;;;4.38;;
73337;SDS011;61575;49.908;35.556;2023-08-24T18:06:57;12.82;;;4.47;;
73337;SDS011;61575;49.908;35.556;2023-08-24T18:09:59;8.98;;;4.35;;
73337;SDS011;61575;49.908;35.556;2023-08-24T18:13:01;45.00;;;7.57;;
73337;SDS011;61575;49.908;35.556;2023-08-24T18:16:04;36.42;;;7.28;;
73337;SDS011;61575;49.908;35.556;2023-08-24T18:22:08;19.73;;;5.63;;
73337;SDS011;61575;49.908;35.556;2023-08-24T18:25:10;10.27;;;4.30;;
73337;SDS011;61575;49.908;35.556;2023-08-24T18:28:12;13.88;;;4.32;;
73337;SDS011;61575;49.908;35.556;2023-08-24T18:31:14;14.60;;;4.35;;
73337;SDS011;61575;49.908;35.556;2023-08-24T18:34:16;12.07;;;4.22;;
73337;SDS011;61575;49.908;35.556;2023-08-24T18:37:18;12.68;;;4.72;;
73337;SDS011;61575;49.908;35.556;2023-08-24T18:40:20;11.95;;;4.13;;
73337;SDS011;61575;49.908;35.556;2023-08-24T18:43:22;9.13;;;3.80;;
73337;SDS011;61575;49.908;35.556;2023-08-24T18:46:24;8.27;;;3.72;;
73337;SDS011;61575;49.908;35.556;2023-08-24T18:49:26;7.93;;;3.40;;
73337;SDS011;61575;49.908;35.556;2023-08-24T18:52:28;8.60;;;3.65;;
73337;SDS011;61575;49.908;35.556;2023-08-24T18:55:30;9.90;;;3.95;;
73337;SDS011;61575;49.908;35.556;2023-08-24T18:58:32;11.80;;;5.53;;
73337;SDS011;61575;49.908;35.556;2023-08-24T19:01:35;15.40;;;6.25;;
73337;SDS011;61575;49.908;35.556;2023-08-24T19:04:37;12.23;;;5.57;;
73337;SDS011;61575;49.908;35.556;2023-08-24T19:07:39;11.07;;;5.97;;
73337;SDS011;61575;49.908;35.556;2023-08-24T19:10:41;17.88;;;6.68;;
73337;SDS011;61575;49.908;35.556;2023-08-24T19:13:43;14.30;;;6.50;;
73337;SDS011;61575;49.908;35.556;2023-08-24T19:16:45;11.40;;;5.43;;
73337;SDS011;61575;49.908;35.556;2023-08-24T19:19:47;11.15;;;5.20;;
73337;SDS011;61575;49.908;35.556;2023-08-24T19:22:49;14.00;;;5.65;;
73337;SDS011;61575;49.908;35.556;2023-08-24T19:28:53;9.07;;;4.68;;
73337;SDS011;61575;49.908;35.556;2023-08-24T19:31:56;9.65;;;5.22;;
73337;SDS011;61575;49.908;35.556;2023-08-24T19:34:59;9.07;;;5.05;;
73337;SDS011;61575;49.908;35.556;2023-08-24T19:38:00;9.55;;;4.50;;
73337;SDS011;61575;49.908;35.556;2023-08-24T19:41:02;10.82;;;5.57;;
73337;SDS011;61575;49.908;35.556;2023-08-24T19:44:04;9.25;;;4.63;;
73337;SDS011;61575;49.908;35.556;2023-08-24T19:47:07;10.02;;;4.72;;
73337;SDS011;61575;49.908;35.556;2023-08-24T19:50:09;8.25;;;4.28;;
73337;SDS011;61575;49.908;35.556;2023-08-24T19:53:11;10.00;;;4.30;;
73337;SDS011;61575;49.908;35.556;2023-08-24T19:56:13;9.80;;;4.55;;
73337;SDS011;61575;49.908;35.556;2023-08-24T19:59:15;13.70;;;4.68;;
73337;SDS011;61575;49.908;35.556;2023-08-24T20:02:17;9.25;;;4.15;;
73337;SDS011;61575;49.908;35.556;2023-08-24T20:05:19;8.80;;;4.35;;
73337;SDS011;61575;49.908;35.556;2023-08-24T20:08:23;8.85;;;4.32;;
73337;SDS011;61575;49.908;35.556;2023-08-24T20:11:28;9.23;;;4.15;;
73337;SDS011;61575;49.908;35.556;2023-08-24T20:14:32;9.82;;;3.92;;
73337;SDS011;61575;49.908;35.556;2023-08-24T20:17:41;9.73;;;4.20;;
73337;SDS011;61575;49.908;35.556;2023-08-24T20:20:44;10.55;;;4.47;;
73337;SDS011;61575;49.908;35.556;2023-08-24T20:23:46;8.82;;;4.28;;
73337;SDS011;61575;49.908;35.556;2023-08-24T20:26:49;7.75;;;4.03;;